Clarkfield, Minnesota
Current Conditions -  °F | °C
As of 11:52 AM on Monday 24 Nov 2014 (Local Time) from KGDB Reporting Station
Light Snow Light Snow  
Wind Chill: -4°   Ceiling: 800
Heat Index: 14°   Visibility: 1.7mi
Dew Point: 10°   Wind: 22mph
Humidity: 81%   Direction: 300°WNW
Pressure: 29.67"   Gusts: 33mph
Location:  44.79°N, 95.81°W
Report Text: KGDB 241752Z AUTO 30019G29KT 1 3/4SM -SN OVC008 M10/M12 A2967 RMK AO2 T10981125
Loading
Personal Weather Stations






























Interactive Weather Map New forecast layout! Learn more

10-Day Weather Forecast

Advertisements
Track Severe Weather on mobile